sensor_id;sensor_type;location;lat;lon;timestamp;P1;durP1;ratioP1;P2;durP2;ratioP2
16352;SDS011;8286;51.274;9.542;2023-07-31T00:01:42;3.00;;;1.90;;
16352;SDS011;8286;51.274;9.542;2023-07-31T00:04:09;4.28;;;1.73;;
16352;SDS011;8286;51.274;9.542;2023-07-31T00:06:35;4.32;;;1.80;;
16352;SDS011;8286;51.274;9.542;2023-07-31T00:09:02;3.50;;;1.60;;
16352;SDS011;8286;51.274;9.542;2023-07-31T00:11:30;3.60;;;1.63;;
16352;SDS011;8286;51.274;9.542;2023-07-31T00:13:56;3.88;;;1.80;;
16352;SDS011;8286;51.274;9.542;2023-07-31T00:16:24;2.10;;;1.58;;
16352;SDS011;8286;51.274;9.542;2023-07-31T00:18:50;2.25;;;1.50;;
16352;SDS011;8286;51.274;9.542;2023-07-31T00:21:17;2.70;;;1.50;;
16352;SDS011;8286;51.274;9.542;2023-07-31T00:23:43;2.15;;;1.63;;
16352;SDS011;8286;51.274;9.542;2023-07-31T00:26:10;2.70;;;1.70;;
16352;SDS011;8286;51.274;9.542;2023-07-31T00:28:38;1.92;;;1.63;;
16352;SDS011;8286;51.274;9.542;2023-07-31T00:31:04;3.00;;;1.70;;
16352;SDS011;8286;51.274;9.542;2023-07-31T00:33:31;2.08;;;1.58;;
16352;SDS011;8286;51.274;9.542;2023-07-31T00:35:58;2.47;;;2.20;;
16352;SDS011;8286;51.274;9.542;2023-07-31T00:38:24;4.38;;;1.90;;
16352;SDS011;8286;51.274;9.542;2023-07-31T00:40:50;6.63;;;1.77;;
16352;SDS011;8286;51.274;9.542;2023-07-31T00:43:17;7.47;;;1.70;;
16352;SDS011;8286;51.274;9.542;2023-07-31T00:45:45;2.97;;;1.90;;
16352;SDS011;8286;51.274;9.542;2023-07-31T00:48:11;6.70;;;1.98;;
16352;SDS011;8286;51.274;9.542;2023-07-31T00:50:38;6.75;;;1.92;;
16352;SDS011;8286;51.274;9.542;2023-07-31T00:53:05;3.58;;;1.73;;
16352;SDS011;8286;51.274;9.542;2023-07-31T00:55:32;4.47;;;2.08;;
16352;SDS011;8286;51.274;9.542;2023-07-31T00:57:58;6.07;;;1.90;;
16352;SDS011;8286;51.274;9.542;2023-07-31T01:00:25;3.55;;;1.98;;
16352;SDS011;8286;51.274;9.542;2023-07-31T01:02:53;4.50;;;2.38;;
16352;SDS011;8286;51.274;9.542;2023-07-31T01:05:20;4.07;;;2.10;;
16352;SDS011;8286;51.274;9.542;2023-07-31T01:07:52;3.88;;;2.10;;
16352;SDS011;8286;51.274;9.542;2023-07-31T01:10:23;3.42;;;1.70;;
16352;SDS011;8286;51.274;9.542;2023-07-31T01:12:52;9.32;;;2.05;;
16352;SDS011;8286;51.274;9.542;2023-07-31T01:15:19;4.30;;;1.83;;
16352;SDS011;8286;51.274;9.542;2023-07-31T01:17:47;6.40;;;2.10;;
16352;SDS011;8286;51.274;9.542;2023-07-31T01:20:16;3.28;;;1.75;;
16352;SDS011;8286;51.274;9.542;2023-07-31T01:25:47;1.95;;;1.80;;
16352;SDS011;8286;51.274;9.542;2023-07-31T01:28:19;3.53;;;2.10;;
16352;SDS011;8286;51.274;9.542;2023-07-31T01:30:48;3.40;;;1.88;;
16352;SDS011;8286;51.274;9.542;2023-07-31T01:33:15;3.58;;;1.77;;
16352;SDS011;8286;51.274;9.542;2023-07-31T01:35:43;4.03;;;2.08;;
16352;SDS011;8286;51.274;9.542;2023-07-31T01:38:11;3.25;;;1.33;;
16352;SDS011;8286;51.274;9.542;2023-07-31T01:40:40;3.55;;;1.88;;
16352;SDS011;8286;51.274;9.542;2023-07-31T01:43:09;2.05;;;1.60;;
16352;SDS011;8286;51.274;9.542;2023-07-31T01:45:35;1.60;;;1.50;;
16352;SDS011;8286;51.274;9.542;2023-07-31T01:48:02;2.95;;;1.67;;
16352;SDS011;8286;51.274;9.542;2023-07-31T01:50:28;3.90;;;1.30;;
16352;SDS011;8286;51.274;9.542;2023-07-31T01:52:55;3.42;;;1.63;;
16352;SDS011;8286;51.274;9.542;2023-07-31T01:55:21;1.42;;;1.33;;
16352;SDS011;8286;51.274;9.542;2023-07-31T01:57:48;1.50;;;1.40;;
16352;SDS011;8286;51.274;9.542;2023-07-31T02:00:16;1.85;;;1.48;;
16352;SDS011;8286;51.274;9.542;2023-07-31T02:02:42;2.13;;;1.73;;
16352;SDS011;8286;51.274;9.542;2023-07-31T02:05:09;3.50;;;1.98;;
16352;SDS011;8286;51.274;9.542;2023-07-31T02:07:35;4.53;;;2.03;;
16352;SDS011;8286;51.274;9.542;2023-07-31T02:10:02;1.60;;;1.50;;
16352;SDS011;8286;51.274;9.542;2023-07-31T02:12:29;3.78;;;1.50;;
16352;SDS011;8286;51.274;9.542;2023-07-31T02:14:57;4.20;;;1.70;;
16352;SDS011;8286;51.274;9.542;2023-07-31T02:17:25;2.67;;;1.73;;
16352;SDS011;8286;51.274;9.542;2023-07-31T02:19:51;1.80;;;1.58;;
16352;SDS011;8286;51.274;9.542;2023-07-31T02:22:19;3.08;;;1.88;;
16352;SDS011;8286;51.274;9.542;2023-07-31T02:24:46;2.38;;;2.17;;
16352;SDS011;8286;51.274;9.542;2023-07-31T02:27:12;6.55;;;2.00;;
16352;SDS011;8286;51.274;9.542;2023-07-31T02:29:39;2.47;;;1.70;;
16352;SDS011;8286;51.274;9.542;2023-07-31T02:32:05;2.03;;;1.77;;
16352;SDS011;8286;51.274;9.542;2023-07-31T02:34:33;3.75;;;1.80;;
16352;SDS011;8286;51.274;9.542;2023-07-31T02:37:00;4.10;;;2.10;;
16352;SDS011;8286;51.274;9.542;2023-07-31T02:39:26;2.10;;;1.85;;
16352;SDS011;8286;51.274;9.542;2023-07-31T02:41:53;2.38;;;2.00;;
16352;SDS011;8286;51.274;9.542;2023-07-31T02:44:20;2.85;;;1.95;;
16352;SDS011;8286;51.274;9.542;2023-07-31T02:46:46;5.05;;;1.90;;
16352;SDS011;8286;51.274;9.542;2023-07-31T02:49:14;3.00;;;1.90;;
16352;SDS011;8286;51.274;9.542;2023-07-31T02:51:42;2.90;;;2.08;;
16352;SDS011;8286;51.274;9.542;2023-07-31T02:54:08;5.65;;;2.20;;
16352;SDS011;8286;51.274;9.542;2023-07-31T02:56:35;2.60;;;1.80;;
16352;SDS011;8286;51.274;9.542;2023-07-31T02:59:01;5.30;;;2.40;;
16352;SDS011;8286;51.274;9.542;2023-07-31T03:01:28;4.82;;;2.33;;
16352;SDS011;8286;51.274;9.542;2023-07-31T03:03:54;5.60;;;2.17;;
16352;SDS011;8286;51.274;9.542;2023-07-31T03:06:21;4.22;;;1.70;;
16352;SDS011;8286;51.274;9.542;2023-07-31T03:08:49;3.22;;;2.10;;
16352;SDS011;8286;51.274;9.542;2023-07-31T03:11:15;3.45;;;2.53;;
16352;SDS011;8286;51.274;9.542;2023-07-31T03:13:42;2.78;;;1.73;;
16352;SDS011;8286;51.274;9.542;2023-07-31T03:16:08;3.63;;;1.98;;
16352;SDS011;8286;51.274;9.542;2023-07-31T03:18:35;4.15;;;2.25;;
16352;SDS011;8286;51.274;9.542;2023-07-31T03:21:01;2.95;;;1.88;;
16352;SDS011;8286;51.274;9.542;2023-07-31T03:23:28;5.80;;;2.22;;
16352;SDS011;8286;51.274;9.542;2023-07-31T03:25:56;6.15;;;2.10;;
16352;SDS011;8286;51.274;9.542;2023-07-31T03:28:22;2.97;;;2.00;;
16352;SDS011;8286;51.274;9.542;2023-07-31T03:30:48;3.85;;;1.88;;
16352;SDS011;8286;51.274;9.542;2023-07-31T03:33:15;5.68;;;1.98;;
16352;SDS011;8286;51.274;9.542;2023-07-31T03:35:41;3.65;;;2.00;;
16352;SDS011;8286;51.274;9.542;2023-07-31T03:38:08;4.25;;;2.15;;
16352;SDS011;8286;51.274;9.542;2023-07-31T03:40:34;4.50;;;2.38;;
16352;SDS011;8286;51.274;9.542;2023-07-31T03:43:02;3.15;;;2.28;;
16352;SDS011;8286;51.274;9.542;2023-07-31T03:45:29;3.15;;;1.90;;
16352;SDS011;8286;51.274;9.542;2023-07-31T03:47:55;5.35;;;2.33;;
16352;SDS011;8286;51.274;9.542;2023-07-31T03:50:22;3.08;;;1.90;;
16352;SDS011;8286;51.274;9.542;2023-07-31T03:52:50;3.47;;;2.10;;
16352;SDS011;8286;51.274;9.542;2023-07-31T03:55:16;2.42;;;1.90;;
16352;SDS011;8286;51.274;9.542;2023-07-31T03:57:43;3.53;;;1.95;;
16352;SDS011;8286;51.274;9.542;2023-07-31T04:00:12;2.20;;;2.00;;
16352;SDS011;8286;51.274;9.542;2023-07-31T04:02:38;4.15;;;2.25;;
16352;SDS011;8286;51.274;9.542;2023-07-31T04:05:05;2.95;;;1.75;;
16352;SDS011;8286;51.274;9.542;2023-07-31T04:07:32;3.25;;;1.85;;
16352;SDS011;8286;51.274;9.542;2023-07-31T04:09:59;5.70;;;2.28;;
16352;SDS011;8286;51.274;9.542;2023-07-31T04:12:26;4.25;;;1.98;;
16352;SDS011;8286;51.274;9.542;2023-07-31T04:14:52;1.70;;;1.50;;
16352;SDS011;8286;51.274;9.542;2023-07-31T04:17:20;3.33;;;1.92;;
16352;SDS011;8286;51.274;9.542;2023-07-31T04:19:46;2.65;;;1.67;;
16352;SDS011;8286;51.274;9.542;2023-07-31T04:22:13;2.83;;;1.83;;
16352;SDS011;8286;51.274;9.542;2023-07-31T04:24:40;4.68;;;2.10;;
16352;SDS011;8286;51.274;9.542;2023-07-31T04:27:06;2.80;;;2.30;;
16352;SDS011;8286;51.274;9.542;2023-07-31T04:29:33;2.50;;;2.22;;
16352;SDS011;8286;51.274;9.542;2023-07-31T04:32:00;5.72;;;2.13;;
16352;SDS011;8286;51.274;9.542;2023-07-31T04:34:27;2.60;;;2.28;;
16352;SDS011;8286;51.274;9.542;2023-07-31T04:36:54;4.63;;;2.22;;
16352;SDS011;8286;51.274;9.542;2023-07-31T04:39:20;4.63;;;1.83;;
16352;SDS011;8286;51.274;9.542;2023-07-31T04:41:47;2.30;;;2.08;;
16352;SDS011;8286;51.274;9.542;2023-07-31T04:44:13;3.78;;;2.35;;
16352;SDS011;8286;51.274;9.542;2023-07-31T04:46:40;4.75;;;2.38;;
16352;SDS011;8286;51.274;9.542;2023-07-31T04:49:06;2.85;;;1.77;;
16352;SDS011;8286;51.274;9.542;2023-07-31T04:51:34;4.20;;;1.92;;
16352;SDS011;8286;51.274;9.542;2023-07-31T04:54:01;3.45;;;1.85;;
16352;SDS011;8286;51.274;9.542;2023-07-31T04:56:27;3.67;;;1.92;;
16352;SDS011;8286;51.274;9.542;2023-07-31T04:58:54;5.07;;;2.15;;
16352;SDS011;8286;51.274;9.542;2023-07-31T05:01:21;3.17;;;2.25;;
16352;SDS011;8286;51.274;9.542;2023-07-31T05:03:47;3.45;;;2.33;;
16352;SDS011;8286;51.274;9.542;2023-07-31T05:06:14;8.38;;;2.30;;
16352;SDS011;8286;51.274;9.542;2023-07-31T05:08:42;2.33;;;1.90;;
16352;SDS011;8286;51.274;9.542;2023-07-31T05:11:08;3.53;;;1.90;;
16352;SDS011;8286;51.274;9.542;2023-07-31T05:13:35;5.35;;;2.35;;
16352;SDS011;8286;51.274;9.542;2023-07-31T05:16:01;3.95;;;2.30;;
16352;SDS011;8286;51.274;9.542;2023-07-31T05:18:28;4.90;;;2.10;;
16352;SDS011;8286;51.274;9.542;2023-07-31T05:20:55;4.95;;;2.58;;
16352;SDS011;8286;51.274;9.542;2023-07-31T05:23:21;3.50;;;2.15;;
16352;SDS011;8286;51.274;9.542;2023-07-31T05:25:49;4.30;;;2.30;;
16352;SDS011;8286;51.274;9.542;2023-07-31T05:28:15;6.40;;;2.10;;
16352;SDS011;8286;51.274;9.542;2023-07-31T05:30:42;3.90;;;2.60;;
16352;SDS011;8286;51.274;9.542;2023-07-31T05:33:08;4.90;;;2.00;;
16352;SDS011;8286;51.274;9.542;2023-07-31T05:35:35;3.80;;;2.47;;
16352;SDS011;8286;51.274;9.542;2023-07-31T05:38:01;2.78;;;2.03;;
16352;SDS011;8286;51.274;9.542;2023-07-31T05:40:28;4.32;;;2.15;;
16352;SDS011;8286;51.274;9.542;2023-07-31T05:42:56;4.35;;;2.20;;
16352;SDS011;8286;51.274;9.542;2023-07-31T05:45:22;5.78;;;2.08;;
16352;SDS011;8286;51.274;9.542;2023-07-31T05:47:49;2.40;;;2.08;;
16352;SDS011;8286;51.274;9.542;2023-07-31T05:50:15;2.40;;;2.13;;
16352;SDS011;8286;51.274;9.542;2023-07-31T05:52:42;3.58;;;1.90;;
16352;SDS011;8286;51.274;9.542;2023-07-31T05:55:09;4.35;;;2.15;;
16352;SDS011;8286;51.274;9.542;2023-07-31T05:57:35;3.63;;;1.80;;
16352;SDS011;8286;51.274;9.542;2023-07-31T06:00:04;5.97;;;2.13;;
16352;SDS011;8286;51.274;9.542;2023-07-31T06:02:32;2.90;;;1.80;;
16352;SDS011;8286;51.274;9.542;2023-07-31T06:05:01;3.47;;;1.92;;
16352;SDS011;8286;51.274;9.542;2023-07-31T06:07:29;5.47;;;2.20;;
16352;SDS011;8286;51.274;9.542;2023-07-31T06:09:55;4.00;;;2.05;;
16352;SDS011;8286;51.274;9.542;2023-07-31T06:12:26;3.45;;;1.98;;
16352;SDS011;8286;51.274;9.542;2023-07-31T06:14:53;3.70;;;1.95;;
16352;SDS011;8286;51.274;9.542;2023-07-31T06:17:21;2.80;;;1.80;;
16352;SDS011;8286;51.274;9.542;2023-07-31T06:19:47;3.92;;;2.13;;
16352;SDS011;8286;51.274;9.542;2023-07-31T06:22:15;3.70;;;2.00;;
16352;SDS011;8286;51.274;9.542;2023-07-31T06:24:41;2.38;;;1.90;;
16352;SDS011;8286;51.274;9.542;2023-07-31T06:27:08;3.25;;;2.10;;
16352;SDS011;8286;51.274;9.542;2023-07-31T06:29:35;2.22;;;1.85;;
16352;SDS011;8286;51.274;9.542;2023-07-31T06:32:01;3.20;;;1.70;;
16352;SDS011;8286;51.274;9.542;2023-07-31T06:34:29;4.00;;;1.83;;
16352;SDS011;8286;51.274;9.542;2023-07-31T06:36:56;2.20;;;1.98;;
16352;SDS011;8286;51.274;9.542;2023-07-31T06:39:22;2.85;;;1.95;;
16352;SDS011;8286;51.274;9.542;2023-07-31T06:41:49;2.88;;;1.73;;
16352;SDS011;8286;51.274;9.542;2023-07-31T06:44:15;4.20;;;2.20;;
16352;SDS011;8286;51.274;9.542;2023-07-31T06:46:42;2.25;;;2.00;;
16352;SDS011;8286;51.274;9.542;2023-07-31T06:49:09;3.03;;;2.30;;
16352;SDS011;8286;51.274;9.542;2023-07-31T06:51:36;4.95;;;2.78;;
16352;SDS011;8286;51.274;9.542;2023-07-31T06:54:03;5.65;;;3.35;;
16352;SDS011;8286;51.274;9.542;2023-07-31T06:56:30;3.13;;;2.20;;
16352;SDS011;8286;51.274;9.542;2023-07-31T06:58:56;5.95;;;2.72;;
16352;SDS011;8286;51.274;9.542;2023-07-31T07:01:23;5.43;;;2.60;;
16352;SDS011;8286;51.274;9.542;2023-07-31T07:03:49;6.68;;;2.70;;
16352;SDS011;8286;51.274;9.542;2023-07-31T07:06:16;3.55;;;3.17;;
16352;SDS011;8286;51.274;9.542;2023-07-31T07:08:44;3.67;;;2.70;;
16352;SDS011;8286;51.274;9.542;2023-07-31T07:11:11;6.57;;;3.05;;
16352;SDS011;8286;51.274;9.542;2023-07-31T07:13:37;7.03;;;2.55;;
16352;SDS011;8286;51.274;9.542;2023-07-31T07:16:04;3.63;;;2.40;;
16352;SDS011;8286;51.274;9.542;2023-07-31T07:18:30;4.60;;;2.53;;
16352;SDS011;8286;51.274;9.542;2023-07-31T07:20:57;5.78;;;2.95;;
16352;SDS011;8286;51.274;9.542;2023-07-31T07:23:23;3.88;;;2.55;;
16352;SDS011;8286;51.274;9.542;2023-07-31T07:25:51;7.68;;;2.67;;
16352;SDS011;8286;51.274;9.542;2023-07-31T07:28:18;5.40;;;2.88;;
16352;SDS011;8286;51.274;9.542;2023-07-31T07:30:44;3.90;;;2.72;;
16352;SDS011;8286;51.274;9.542;2023-07-31T07:33:11;3.33;;;2.70;;
16352;SDS011;8286;51.274;9.542;2023-07-31T07:35:37;4.50;;;2.40;;
16352;SDS011;8286;51.274;9.542;2023-07-31T07:38:04;7.47;;;2.40;;
16352;SDS011;8286;51.274;9.542;2023-07-31T07:40:30;6.40;;;2.85;;
16352;SDS011;8286;51.274;9.542;2023-07-31T07:42:58;4.55;;;2.45;;
16352;SDS011;8286;51.274;9.542;2023-07-31T07:45:25;7.05;;;2.72;;
16352;SDS011;8286;51.274;9.542;2023-07-31T07:47:52;5.53;;;2.72;;
16352;SDS011;8286;51.274;9.542;2023-07-31T07:50:18;3.10;;;2.17;;
16352;SDS011;8286;51.274;9.542;2023-07-31T07:52:45;5.10;;;2.33;;
16352;SDS011;8286;51.274;9.542;2023-07-31T07:55:11;6.03;;;2.38;;
16352;SDS011;8286;51.274;9.542;2023-07-31T07:57:38;5.53;;;2.58;;
16352;SDS011;8286;51.274;9.542;2023-07-31T08:00:07;7.03;;;2.88;;
16352;SDS011;8286;51.274;9.542;2023-07-31T08:02:35;3.53;;;2.00;;
16352;SDS011;8286;51.274;9.542;2023-07-31T08:05:02;6.07;;;2.67;;
16352;SDS011;8286;51.274;9.542;2023-07-31T08:07:28;4.22;;;2.20;;
16352;SDS011;8286;51.274;9.542;2023-07-31T08:09:55;3.15;;;2.10;;
16352;SDS011;8286;51.274;9.542;2023-07-31T08:12:21;6.72;;;2.20;;
16352;SDS011;8286;51.274;9.542;2023-07-31T08:14:48;3.67;;;2.70;;
16352;SDS011;8286;51.274;9.542;2023-07-31T08:17:15;2.55;;;2.28;;
16352;SDS011;8286;51.274;9.542;2023-07-31T08:19:42;2.97;;;2.38;;
16352;SDS011;8286;51.274;9.542;2023-07-31T08:22:09;3.78;;;2.25;;
16352;SDS011;8286;51.274;9.542;2023-07-31T08:24:35;4.93;;;2.70;;
16352;SDS011;8286;51.274;9.542;2023-07-31T08:27:02;3.53;;;2.08;;
16352;SDS011;8286;51.274;9.542;2023-07-31T08:29:28;3.65;;;1.98;;
16352;SDS011;8286;51.274;9.542;2023-07-31T08:31:55;3.30;;;2.78;;
16352;SDS011;8286;51.274;9.542;2023-07-31T08:34:23;5.10;;;2.17;;
16352;SDS011;8286;51.274;9.542;2023-07-31T08:36:49;5.05;;;2.65;;
16352;SDS011;8286;51.274;9.542;2023-07-31T08:39:16;2.92;;;2.10;;
16352;SDS011;8286;51.274;9.542;2023-07-31T08:41:42;4.70;;;2.78;;
16352;SDS011;8286;51.274;9.542;2023-07-31T08:44:09;4.97;;;2.25;;
16352;SDS011;8286;51.274;9.542;2023-07-31T08:46:36;3.38;;;2.30;;
16352;SDS011;8286;51.274;9.542;2023-07-31T08:49:04;2.65;;;2.10;;
16352;SDS011;8286;51.274;9.542;2023-07-31T08:51:33;3.58;;;2.17;;
16352;SDS011;8286;51.274;9.542;2023-07-31T08:54:00;5.78;;;2.58;;
16352;SDS011;8286;51.274;9.542;2023-07-31T08:56:29;2.10;;;1.88;;
16352;SDS011;8286;51.274;9.542;2023-07-31T08:58:56;3.40;;;2.75;;
16352;SDS011;8286;51.274;9.542;2023-07-31T09:01:23;4.53;;;2.35;;
16352;SDS011;8286;51.274;9.542;2023-07-31T09:03:49;2.75;;;2.20;;
16352;SDS011;8286;51.274;9.542;2023-07-31T09:06:17;3.38;;;2.38;;
16352;SDS011;8286;51.274;9.542;2023-07-31T09:08:46;4.28;;;2.42;;
16352;SDS011;8286;51.274;9.542;2023-07-31T09:11:13;6.47;;;2.58;;
16352;SDS011;8286;51.274;9.542;2023-07-31T09:13:39;5.63;;;2.13;;
16352;SDS011;8286;51.274;9.542;2023-07-31T09:16:07;3.67;;;2.10;;
16352;SDS011;8286;51.274;9.542;2023-07-31T09:18:35;3.83;;;2.28;;
16352;SDS011;8286;51.274;9.542;2023-07-31T09:21:19;4.80;;;2.20;;
16352;SDS011;8286;51.274;9.542;2023-07-31T09:23:47;3.88;;;2.55;;
16352;SDS011;8286;51.274;9.542;2023-07-31T09:26:28;3.97;;;2.53;;
16352;SDS011;8286;51.274;9.542;2023-07-31T09:28:55;2.92;;;2.42;;
16352;SDS011;8286;51.274;9.542;2023-07-31T09:31:31;7.72;;;2.70;;
16352;SDS011;8286;51.274;9.542;2023-07-31T09:33:58;7.47;;;2.63;;
16352;SDS011;8286;51.274;9.542;2023-07-31T09:36:25;3.25;;;2.42;;
16352;SDS011;8286;51.274;9.542;2023-07-31T09:38:57;3.50;;;2.33;;
16352;SDS011;8286;51.274;9.542;2023-07-31T09:41:28;6.10;;;2.80;;
16352;SDS011;8286;51.274;9.542;2023-07-31T09:43:54;5.57;;;2.67;;
16352;SDS011;8286;51.274;9.542;2023-07-31T09:46:21;6.57;;;3.35;;
16352;SDS011;8286;51.274;9.542;2023-07-31T09:48:48;5.47;;;2.75;;
16352;SDS011;8286;51.274;9.542;2023-07-31T09:51:14;5.90;;;3.38;;
16352;SDS011;8286;51.274;9.542;2023-07-31T09:53:41;5.75;;;2.90;;
16352;SDS011;8286;51.274;9.542;2023-07-31T09:56:08;10.60;;;3.50;;
16352;SDS011;8286;51.274;9.542;2023-07-31T09:58:35;3.85;;;2.80;;
16352;SDS011;8286;51.274;9.542;2023-07-31T10:01:02;9.25;;;3.13;;
16352;SDS011;8286;51.274;9.542;2023-07-31T10:03:28;6.82;;;2.95;;
16352;SDS011;8286;51.274;9.542;2023-07-31T10:05:56;5.43;;;3.00;;
16352;SDS011;8286;51.274;9.542;2023-07-31T10:08:23;6.13;;;3.05;;
16352;SDS011;8286;51.274;9.542;2023-07-31T10:10:55;7.07;;;3.08;;
16352;SDS011;8286;51.274;9.542;2023-07-31T10:13:26;6.03;;;3.13;;
16352;SDS011;8286;51.274;9.542;2023-07-31T10:15:54;6.05;;;3.22;;
16352;SDS011;8286;51.274;9.542;2023-07-31T10:18:20;7.20;;;3.28;;
16352;SDS011;8286;51.274;9.542;2023-07-31T10:20:47;8.60;;;3.38;;
16352;SDS011;8286;51.274;9.542;2023-07-31T10:23:14;4.40;;;3.20;;
16352;SDS011;8286;51.274;9.542;2023-07-31T10:25:40;4.38;;;2.88;;
16352;SDS011;8286;51.274;9.542;2023-07-31T10:28:08;3.67;;;2.72;;
16352;SDS011;8286;51.274;9.542;2023-07-31T10:30:37;6.78;;;3.08;;
16352;SDS011;8286;51.274;9.542;2023-07-31T10:33:04;7.65;;;3.70;;
16352;SDS011;8286;51.274;9.542;2023-07-31T10:35:31;5.68;;;2.70;;
16352;SDS011;8286;51.274;9.542;2023-07-31T10:38:05;5.82;;;3.10;;
16352;SDS011;8286;51.274;9.542;2023-07-31T10:40:35;4.47;;;2.80;;
16352;SDS011;8286;51.274;9.542;2023-07-31T10:43:02;7.45;;;3.28;;
16352;SDS011;8286;51.274;9.542;2023-07-31T10:45:30;5.22;;;2.60;;
16352;SDS011;8286;51.274;9.542;2023-07-31T10:47:59;10.10;;;2.95;;
16352;SDS011;8286;51.274;9.542;2023-07-31T10:50:27;5.80;;;2.95;;
16352;SDS011;8286;51.274;9.542;2023-07-31T10:52:54;6.30;;;3.17;;
16352;SDS011;8286;51.274;9.542;2023-07-31T10:55:24;4.93;;;2.65;;
16352;SDS011;8286;51.274;9.542;2023-07-31T10:57:52;5.20;;;2.85;;
16352;SDS011;8286;51.274;9.542;2023-07-31T11:00:20;7.03;;;3.17;;
16352;SDS011;8286;51.274;9.542;2023-07-31T11:02:57;9.20;;;2.80;;
16352;SDS011;8286;51.274;9.542;2023-07-31T11:05:49;6.38;;;2.85;;
16352;SDS011;8286;51.274;9.542;2023-07-31T11:08:18;4.80;;;2.72;;
16352;SDS011;8286;51.274;9.542;2023-07-31T11:10:47;7.70;;;2.88;;
16352;SDS011;8286;51.274;9.542;2023-07-31T11:13:14;4.65;;;2.70;;
16352;SDS011;8286;51.274;9.542;2023-07-31T11:15:41;4.93;;;3.00;;
16352;SDS011;8286;51.274;9.542;2023-07-31T11:18:09;5.72;;;2.70;;
16352;SDS011;8286;51.274;9.542;2023-07-31T11:20:37;4.65;;;3.20;;
16352;SDS011;8286;51.274;9.542;2023-07-31T11:23:05;5.68;;;3.08;;
16352;SDS011;8286;51.274;9.542;2023-07-31T11:25:33;4.72;;;2.75;;
16352;SDS011;8286;51.274;9.542;2023-07-31T11:28:04;6.75;;;2.47;;
16352;SDS011;8286;51.274;9.542;2023-07-31T11:30:31;3.95;;;2.20;;
16352;SDS011;8286;51.274;9.542;2023-07-31T11:32:58;2.92;;;2.58;;
16352;SDS011;8286;51.274;9.542;2023-07-31T11:35:27;5.20;;;2.45;;
16352;SDS011;8286;51.274;9.542;2023-07-31T11:37:53;3.53;;;1.95;;
16352;SDS011;8286;51.274;9.542;2023-07-31T11:40:20;5.03;;;2.78;;
16352;SDS011;8286;51.274;9.542;2023-07-31T11:42:47;4.72;;;2.50;;
16352;SDS011;8286;51.274;9.542;2023-07-31T11:45:13;2.20;;;2.00;;
16352;SDS011;8286;51.274;9.542;2023-07-31T11:47:39;4.85;;;2.15;;
16352;SDS011;8286;51.274;9.542;2023-07-31T11:50:09;2.15;;;1.80;;
16352;SDS011;8286;51.274;9.542;2023-07-31T11:52:39;2.78;;;2.10;;
16352;SDS011;8286;51.274;9.542;2023-07-31T11:55:07;4.90;;;2.67;;
16352;SDS011;8286;51.274;9.542;2023-07-31T11:57:36;4.28;;;2.30;;
16352;SDS011;8286;51.274;9.542;2023-07-31T12:00:03;1.90;;;1.80;;
16352;SDS011;8286;51.274;9.542;2023-07-31T12:02:31;2.85;;;2.05;;
16352;SDS011;8286;51.274;9.542;2023-07-31T12:04:58;3.38;;;2.55;;
16352;SDS011;8286;51.274;9.542;2023-07-31T12:07:24;3.63;;;2.28;;
16352;SDS011;8286;51.274;9.542;2023-07-31T12:09:53;2.10;;;1.90;;
16352;SDS011;8286;51.274;9.542;2023-07-31T12:12:20;3.03;;;2.33;;
16352;SDS011;8286;51.274;9.542;2023-07-31T12:14:47;4.82;;;2.50;;
16352;SDS011;8286;51.274;9.542;2023-07-31T12:17:13;7.18;;;2.90;;
16352;SDS011;8286;51.274;9.542;2023-07-31T12:19:40;3.65;;;2.42;;
16352;SDS011;8286;51.274;9.542;2023-07-31T12:22:10;4.05;;;2.70;;
16352;SDS011;8286;51.274;9.542;2023-07-31T12:24:38;9.48;;;2.42;;
16352;SDS011;8286;51.274;9.542;2023-07-31T12:27:09;4.30;;;2.30;;
16352;SDS011;8286;51.274;9.542;2023-07-31T12:29:36;4.72;;;2.15;;
16352;SDS011;8286;51.274;9.542;2023-07-31T12:32:04;4.85;;;2.40;;
16352;SDS011;8286;51.274;9.542;2023-07-31T12:34:31;3.28;;;2.72;;
16352;SDS011;8286;51.274;9.542;2023-07-31T12:37:08;3.97;;;2.72;;
16352;SDS011;8286;51.274;9.542;2023-07-31T12:39:34;2.90;;;2.30;;
16352;SDS011;8286;51.274;9.542;2023-07-31T12:42:01;7.00;;;3.08;;
16352;SDS011;8286;51.274;9.542;2023-07-31T12:44:29;5.20;;;3.10;;
16352;SDS011;8286;51.274;9.542;2023-07-31T12:46:56;7.40;;;2.97;;
16352;SDS011;8286;51.274;9.542;2023-07-31T12:49:22;6.93;;;2.83;;
16352;SDS011;8286;51.274;9.542;2023-07-31T12:51:49;3.85;;;2.67;;
16352;SDS011;8286;51.274;9.542;2023-07-31T12:54:15;3.85;;;2.75;;
16352;SDS011;8286;51.274;9.542;2023-07-31T12:56:42;6.07;;;2.78;;
16352;SDS011;8286;51.274;9.542;2023-07-31T12:59:08;7.45;;;3.00;;
16352;SDS011;8286;51.274;9.542;2023-07-31T13:01:36;6.38;;;2.63;;
16352;SDS011;8286;51.274;9.542;2023-07-31T13:04:03;5.72;;;2.80;;
16352;SDS011;8286;51.274;9.542;2023-07-31T13:06:29;8.60;;;2.75;;
16352;SDS011;8286;51.274;9.542;2023-07-31T13:08:56;6.68;;;2.30;;
16352;SDS011;8286;51.274;9.542;2023-07-31T13:11:22;3.42;;;2.30;;
16352;SDS011;8286;51.274;9.542;2023-07-31T13:13:49;4.97;;;2.85;;
16352;SDS011;8286;51.274;9.542;2023-07-31T13:16:15;4.15;;;2.20;;
16352;SDS011;8286;51.274;9.542;2023-07-31T13:18:43;4.75;;;2.40;;
16352;SDS011;8286;51.274;9.542;2023-07-31T13:21:10;3.05;;;2.55;;
16352;SDS011;8286;51.274;9.542;2023-07-31T13:23:36;4.68;;;2.53;;
16352;SDS011;8286;51.274;9.542;2023-07-31T13:26:03;7.40;;;3.05;;
16352;SDS011;8286;51.274;9.542;2023-07-31T13:28:29;3.30;;;2.25;;
16352;SDS011;8286;51.274;9.542;2023-07-31T13:30:56;4.65;;;2.30;;
16352;SDS011;8286;51.274;9.542;2023-07-31T13:33:22;3.28;;;2.40;;
16352;SDS011;8286;51.274;9.542;2023-07-31T13:35:50;5.43;;;2.50;;
16352;SDS011;8286;51.274;9.542;2023-07-31T13:38:16;5.28;;;2.28;;
16352;SDS011;8286;51.274;9.542;2023-07-31T13:40:43;5.13;;;2.33;;
16352;SDS011;8286;51.274;9.542;2023-07-31T13:43:09;3.97;;;2.53;;
16352;SDS011;8286;51.274;9.542;2023-07-31T13:45:36;4.38;;;2.67;;
16352;SDS011;8286;51.274;9.542;2023-07-31T13:48:03;3.97;;;2.38;;
16352;SDS011;8286;51.274;9.542;2023-07-31T13:50:30;3.80;;;2.50;;
16352;SDS011;8286;51.274;9.542;2023-07-31T13:52:57;3.92;;;2.90;;
16352;SDS011;8286;51.274;9.542;2023-07-31T13:55:24;4.72;;;2.20;;
16352;SDS011;8286;51.274;9.542;2023-07-31T13:57:50;3.45;;;2.45;;
16352;SDS011;8286;51.274;9.542;2023-07-31T14:00:18;5.85;;;2.58;;
16352;SDS011;8286;51.274;9.542;2023-07-31T14:02:45;4.90;;;2.17;;
16352;SDS011;8286;51.274;9.542;2023-07-31T14:05:11;3.17;;;2.17;;
16352;SDS011;8286;51.274;9.542;2023-07-31T14:07:38;5.63;;;2.80;;
16352;SDS011;8286;51.274;9.542;2023-07-31T14:10:06;5.03;;;2.80;;
16352;SDS011;8286;51.274;9.542;2023-07-31T14:12:33;4.25;;;2.17;;
16352;SDS011;8286;51.274;9.542;2023-07-31T14:14:59;2.92;;;2.38;;
16352;SDS011;8286;51.274;9.542;2023-07-31T14:17:26;6.35;;;2.53;;
16352;SDS011;8286;51.274;9.542;2023-07-31T14:19:52;3.83;;;2.30;;
16352;SDS011;8286;51.274;9.542;2023-07-31T14:22:26;3.90;;;1.80;;
16352;SDS011;8286;51.274;9.542;2023-07-31T14:24:54;3.22;;;2.20;;
16352;SDS011;8286;51.274;9.542;2023-07-31T14:27:22;3.00;;;2.17;;
16352;SDS011;8286;51.274;9.542;2023-07-31T14:29:48;3.72;;;2.25;;
16352;SDS011;8286;51.274;9.542;2023-07-31T14:32:15;7.25;;;1.98;;
16352;SDS011;8286;51.274;9.542;2023-07-31T14:34:41;3.20;;;1.83;;
16352;SDS011;8286;51.274;9.542;2023-07-31T14:37:08;2.22;;;2.03;;
16352;SDS011;8286;51.274;9.542;2023-07-31T14:39:34;2.03;;;1.58;;
16352;SDS011;8286;51.274;9.542;2023-07-31T14:42:01;2.38;;;1.83;;
16352;SDS011;8286;51.274;9.542;2023-07-31T14:44:29;3.42;;;2.22;;
16352;SDS011;8286;51.274;9.542;2023-07-31T14:46:55;1.73;;;1.63;;
16352;SDS011;8286;51.274;9.542;2023-07-31T14:49:22;2.28;;;1.95;;
16352;SDS011;8286;51.274;9.542;2023-07-31T14:51:49;3.72;;;1.90;;
16352;SDS011;8286;51.274;9.542;2023-07-31T14:54:16;4.30;;;2.60;;
16352;SDS011;8286;51.274;9.542;2023-07-31T14:56:42;5.18;;;1.98;;
16352;SDS011;8286;51.274;9.542;2023-07-31T14:59:09;5.40;;;2.08;;
16352;SDS011;8286;51.274;9.542;2023-07-31T15:01:37;3.45;;;2.10;;
16352;SDS011;8286;51.274;9.542;2023-07-31T15:04:04;3.20;;;1.90;;